Time;durP1;ratioP1;P1;durP2;ratioP2;P2;SDS_P1;SDS_P2;PMS_P1;PMS_P2;Temp;Humidity;BMP_temperature;BMP_pressure;BME280_temperature;BME280_humidity;BME280_pressure;Samples;Min_cycle;Max_cycle;Signal;HPM_P1;HPM_P2
2024/01/25 05:22:39;;;;;;;6.85;2.25;;;;;;;8.28;100.00;101741.06;5121510;27;20334;-34
2024/01/25 05:25:06;;;;;;;6.07;2.00;;;;;;;8.26;100.00;101741.53;5129978;28;20039;-32
2024/01/25 05:27:31;;;;;;;8.20;2.58;;;;;;;8.06;100.00;101739.00;5129763;28;20019;-34
2024/01/25 05:29:57;;;;;;;9.02;2.42;;;;;;;8.17;100.00;101741.44;5129783;28;20075;-34
2024/01/25 05:32:22;;;;;;;15.15;2.75;;;;;;;8.19;100.00;101741.00;5129957;27;20391;-31
2024/01/25 05:34:47;;;;;;;7.15;2.13;;;;;;;8.13;100.00;101747.09;5130029;28;20099;-34
2024/01/25 05:37:13;;;;;;;7.60;2.10;;;;;;;7.92;100.00;101745.78;5129673;27;20031;-33
2024/01/25 05:39:38;;;;;;;7.85;2.63;;;;;;;8.07;100.00;101746.09;5129942;27;20041;-33
2024/01/25 05:42:04;;;;;;;8.20;2.47;;;;;;;8.09;100.00;101756.78;5129591;27;20047;-33
2024/01/25 05:44:30;;;;;;;7.72;2.55;;;;;;;7.96;100.00;101764.34;5129702;27;20040;-33
2024/01/25 05:46:55;;;;;;;6.70;2.30;;;;;;;7.76;100.00;101770.88;5129176;28;20040;-36
2024/01/25 05:49:42;;;;;;;7.32;2.35;;;;;;;-147.11;100.00;72537.44;5129495;28;20034;-39
2024/01/25 05:52:07;;;;;;;7.43;2.33;;;;;;;7.69;100.00;101765.53;5129565;28;20020;-33
2024/01/25 05:54:33;;;;;;;11.57;2.40;;;;;;;7.64;100.00;101760.53;5129583;27;20487;-37
2024/01/25 05:56:58;;;;;;;8.65;2.85;;;;;;;7.52;100.00;101761.31;5129172;27;20115;-35
2024/01/25 05:59:24;;;;;;;10.98;3.35;;;;;;;7.51;100.00;101754.19;5129362;27;20015;-33
2024/01/25 06:01:49;;;;;;;13.70;3.13;;;;;;;7.60;100.00;101760.63;5129201;27;20548;-34
2024/01/25 06:04:14;;;;;;;7.30;2.22;;;;;;;7.54;100.00;101748.50;5129175;27;20114;-32
2024/01/25 06:06:40;;;;;;;11.35;3.55;;;;;;;7.43;100.00;101754.38;5129204;28;20515;-33
2024/01/25 06:09:05;;;;;;;6.47;2.35;;;;;;;7.34;100.00;101748.69;5128971;27;20062;-39
2024/01/25 06:11:33;;;;;;;10.93;3.30;;;;;;;7.26;100.00;101741.03;5129280;27;20059;-34
2024/01/25 06:13:58;;;;;;;6.10;2.45;;;;;;;7.23;100.00;101745.47;5129215;27;20030;-32
2024/01/25 06:16:24;;;;;;;7.25;2.50;;;;;;;7.21;100.00;101742.34;5128992;27;20122;-33
2024/01/25 06:18:49;;;;;;;7.47;2.42;;;;;;;7.17;100.00;101745.22;5128911;28;20110;-39
2024/01/25 06:21:14;;;;;;;11.00;2.67;;;;;;;7.21;100.00;101750.66;5128707;27;20045;-33
2024/01/25 06:23:40;;;;;;;9.38;2.58;;;;;;;7.09;100.00;101741.06;5128908;28;20050;-33
2024/01/25 06:26:05;;;;;;;9.40;2.42;;;;;;;7.06;100.00;101747.50;5128668;27;20031;-35
2024/01/25 06:28:31;;;;;;;8.55;2.47;;;;;;;7.10;100.00;101750.97;5128598;27;20491;-32
2024/01/25 06:30:56;;;;;;;6.93;1.80;;;;;;;7.05;100.00;101750.72;5128641;28;20040;-33
2024/01/25 06:33:22;;;;;;;7.38;2.65;;;;;;;6.86;100.00;101755.97;5118372;27;20107;-34
2024/01/25 06:35:47;;;;;;;6.18;2.05;;;;;;;6.87;100.00;101748.41;5114974;27;20035;-32
2024/01/25 06:38:13;;;;;;;8.55;2.30;;;;;;;7.02;100.00;101751.59;5114719;28;20035;-32
2024/01/25 06:40:38;;;;;;;7.05;2.10;;;;;;;6.93;100.00;101750.25;5114930;28;20046;-32
2024/01/25 06:43:04;;;;;;;11.98;2.53;;;;;;;6.94;100.00;101746.25;5111556;27;20670;-37
2024/01/25 06:45:29;;;;;;;8.13;3.00;;;;;;;6.82;100.00;101743.44;5114689;28;20040;-32
2024/01/25 06:47:55;;;;;;;6.15;2.58;;;;;;;6.89;100.00;101755.09;5114521;28;20044;-32
2024/01/25 06:50:20;;;;;;;2.92;1.50;;;;;;;15.07;100.00;101751.44;5116947;27;20077;-32
2024/01/25 06:52:45;;;;;;;4.07;1.88;;;;;;;15.13;90.47;101745.88;5116784;27;20047;-30
2024/01/25 06:55:11;;;;;;;4.07;1.77;;;;;;;15.18;83.72;101750.78;5113252;28;20031;-30
2024/01/25 06:57:39;;;;;;;4.38;2.60;;;;;;;8.81;100.00;101744.09;5112796;28;20157;-34
2024/01/25 07:00:05;;;;;;;9.80;3.15;;;;;;;7.65;100.00;101735.09;5113848;27;20059;-37
2024/01/25 07:02:30;;;;;;;10.27;3.20;;;;;;;7.37;100.00;101745.03;5114537;27;20035;-34
2024/01/25 07:04:56;;;;;;;8.95;2.95;;;;;;;7.27;100.00;101740.59;5114148;28;20038;-33
2024/01/25 07:07:21;;;;;;;5.07;2.72;;;;;;;7.04;100.00;101746.41;5114186;28;20079;-32
2024/01/25 07:09:46;;;;;;;9.15;2.88;;;;;;;6.92;100.00;101759.78;5114294;28;20110;-33
2024/01/25 07:12:12;;;;;;;7.50;2.25;;;;;;;7.10;100.00;101753.75;5114369;28;20479;-37
2024/01/25 07:14:37;;;;;;;9.05;2.63;;;;;;;7.18;100.00;101741.22;5114284;28;20583;-36
2024/01/25 07:17:03;;;;;;;8.75;2.60;;;;;;;7.09;100.00;101743.84;5113895;28;20127;-33
2024/01/25 07:19:29;;;;;;;6.32;2.58;;;;;;;7.21;100.00;101745.88;5114142;27;20042;-32
2024/01/25 07:21:54;;;;;;;6.70;2.38;;;;;;;7.24;100.00;101749.78;5113915;28;20043;-36
2024/01/25 07:24:20;;;;;;;8.85;2.55;;;;;;;7.24;100.00;101736.69;5114155;28;20035;-32
2024/01/25 07:26:45;;;;;;;6.68;2.67;;;;;;;7.27;100.00;101748.13;5113680;28;20039;-41
2024/01/25 07:29:10;;;;;;;9.65;3.10;;;;;;;7.35;100.00;101752.25;5113920;27;20027;-35
2024/01/25 07:31:36;;;;;;;4.90;2.15;;;;;;;7.41;100.00;101751.25;5113985;28;20059;-33
2024/01/25 07:34:01;;;;;;;7.70;2.53;;;;;;;7.48;100.00;101764.19;5113867;28;20062;-37
2024/01/25 07:36:27;;;;;;;7.40;2.85;;;;;;;7.74;100.00;101770.56;5113801;28;20431;-37
2024/01/25 07:38:52;;;;;;;5.38;2.10;;;;;;;7.92;100.00;101786.69;5113257;28;20035;-33
2024/01/25 07:41:17;;;;;;;9.20;2.30;;;;;;;8.18;100.00;101795.78;5112383;28;20491;-34
2024/01/25 07:43:43;;;;;;;6.47;1.90;;;;;;;8.50;100.00;101789.22;5113019;28;20039;-35
2024/01/25 07:46:10;;;;;;;5.85;1.83;;;;;;;8.82;100.00;101792.94;5113302;28;20028;-34
2024/01/25 07:48:35;;;;;;;5.82;1.88;;;;;;;8.72;100.00;101794.09;5113384;28;20049;-34
2024/01/25 07:51:01;;;;;;;4.72;1.77;;;;;;;9.16;100.00;101799.75;5113587;28;20044;-37
2024/01/25 07:53:27;;;;;;;5.72;1.90;;;;;;;9.30;100.00;101793.66;5113633;28;20122;-39
2024/01/25 07:55:52;;;;;;;4.07;1.77;;;;;;;9.28;100.00;101790.56;5113525;28;20054;-36
2024/01/25 07:58:17;;;;;;;4.70;1.60;;;;;;;9.66;100.00;101790.34;5113170;28;20556;-34
2024/01/25 08:00:44;;;;;;;4.95;1.88;;;;;;;10.21;100.00;101779.44;5113179;28;20040;-36
2024/01/25 08:03:09;;;;;;;5.45;1.77;;;;;;;9.93;100.00;101783.34;5113369;27;20502;-33
2024/01/25 08:05:35;;;;;;;7.82;1.85;;;;;;;10.84;100.00;101784.84;5113322;28;20040;-38
2024/01/25 08:08:00;;;;;;;3.85;1.83;;;;;;;11.43;100.00;101783.44;5112957;28;20126;-33
2024/01/25 08:10:25;;;;;;;4.00;1.73;;;;;;;11.82;97.43;101802.44;5113141;28;20155;-33
2024/01/25 08:12:51;;;;;;;5.80;2.03;;;;;;;12.18;90.99;101798.00;5112941;28;20114;-40
2024/01/25 08:15:17;;;;;;;3.53;1.88;;;;;;;12.84;89.94;101792.31;5113077;28;20058;-39
2024/01/25 08:17:42;;;;;;;3.53;1.77;;;;;;;12.64;86.81;101800.53;5112863;28;20092;-35
2024/01/25 08:20:09;;;;;;;3.28;1.60;;;;;;;12.86;85.74;101789.78;5112662;28;20062;-34
2024/01/25 08:22:35;;;;;;;3.80;1.40;;;;;;;14.12;76.86;101790.25;5112984;28;20474;-33
2024/01/25 08:25:00;;;;;;;3.17;1.52;;;;;;;14.12;75.74;101786.69;5112745;28;20119;-34
2024/01/25 08:27:25;;;;;;;6.85;1.55;;;;;;;14.26;74.77;101777.47;5112532;28;20035;-36
2024/01/25 08:29:51;;;;;;;5.85;1.95;;;;;;;14.42;72.53;101778.97;5112636;28;20461;-34
2024/01/25 08:32:16;;;;;;;4.85;1.70;;;;;;;13.90;75.93;101779.50;5112850;28;20114;-35
2024/01/25 08:34:41;;;;;;;4.35;1.70;;;;;;;14.62;71.36;101775.44;5112719;28;20490;-37
2024/01/25 08:37:07;;;;;;;4.97;1.58;;;;;;;14.75;70.79;101769.47;5112432;28;20046;-36
2024/01/25 08:39:32;;;;;;;4.53;1.70;;;;;;;13.56;78.15;101774.56;5111688;28;20047;-34
2024/01/25 08:42:01;;;;;;;4.10;1.65;;;;;;;14.89;70.64;101769.38;5112198;28;20046;-35
2024/01/25 08:44:27;;;;;;;2.50;1.50;;;;;;;14.62;70.60;101764.97;5094732;28;20058;-35
2024/01/25 08:46:52;;;;;;;4.72;1.58;;;;;;;14.11;74.82;101768.31;5111712;28;20040;-34
2024/01/25 08:49:18;;;;;;;4.15;1.50;;;;;;;14.11;74.73;101759.91;5094256;28;20027;-35
2024/01/25 08:51:43;;;;;;;3.80;1.52;;;;;;;14.19;72.09;101769.47;5111638;28;20038;-35
2024/01/25 08:54:09;;;;;;;3.70;1.42;;;;;;;15.08;70.26;101771.88;5110674;28;20545;-40
2024/01/25 08:56:34;;;;;;;2.92;1.63;;;;;;;16.45;63.01;101770.44;5110212;28;20046;-38
2024/01/25 08:59:00;;;;;;;3.90;1.20;;;;;;;16.15;63.16;101770.78;5109148;28;20035;-37
2024/01/25 09:01:25;;;;;;;5.93;1.33;;;;;;;14.87;68.39;101782.38;5111915;28;20071;-40
2024/01/25 09:03:51;;;;;;;2.55;1.45;;;;;;;16.85;59.64;101777.81;5111849;28;20035;-41
2024/01/25 09:06:16;;;;;;;3.75;1.50;;;;;;;16.82;60.10;101783.69;5111793;28;20043;-41
2024/01/25 09:08:42;;;;;;;4.15;1.60;;;;;;;16.37;60.10;101795.50;5111772;28;20038;-37
2024/01/25 09:11:07;;;;;;;4.85;1.67;;;;;;;17.40;56.84;101798.22;5111821;28;20050;-39
2024/01/25 09:13:33;;;;;;;5.65;1.77;;;;;;;16.20;59.83;101798.19;5111853;28;20069;-41
2024/01/25 09:15:58;;;;;;;4.18;1.70;;;;;;;16.26;60.41;101807.44;5093673;28;20042;-38
2024/01/25 09:18:24;;;;;;;6.32;1.45;;;;;;;16.60;59.95;101798.44;5111922;28;20032;-38
2024/01/25 09:20:49;;;;;;;5.18;1.63;;;;;;;15.79;62.22;101803.25;5111591;28;20466;-40
2024/01/25 09:23:16;;;;;;;4.18;1.55;;;;;;;15.24;66.64;101805.00;5111977;28;20063;-38
2024/01/25 09:25:42;;;;;;;2.78;1.48;;;;;;;14.09;73.51;101818.53;5110542;28;20028;-38
2024/01/25 09:28:08;;;;;;;3.70;1.70;;;;;;;14.94;71.56;101817.69;5110466;28;20106;-39
2024/01/25 09:30:33;;;;;;;3.33;1.50;;;;;;;14.66;71.76;101804.06;5112096;28;20027;-38
2024/01/25 09:32:58;;;;;;;4.72;1.55;;;;;;;13.59;75.09;101798.84;5111921;28;20039;-41
2024/01/25 09:35:24;;;;;;;5.65;1.70;;;;;;;15.06;69.70;101811.72;5111990;28;20111;-38
2024/01/25 09:37:52;;;;;;;3.75;1.48;;;;;;;13.76;71.48;101808.31;5111770;28;20043;-41
2024/01/25 09:40:20;;;;;;;4.38;1.80;;;;;;;13.71;74.82;101806.19;5111709;28;20379;-40
2024/01/25 09:42:48;;;;;;;5.90;1.83;;;;;;;13.17;80.67;101811.03;5111924;28;20444;-39
2024/01/25 09:45:17;;;;;;;4.30;1.55;;;;;;;13.98;76.44;101816.31;5103580;28;20039;-39
2024/01/25 09:47:43;;;;;;;4.20;1.70;;;;;;;14.88;70.24;101807.16;5111675;28;20406;-39
2024/01/25 09:50:09;;;;;;;2.55;1.30;;;;;;;14.11;70.74;101811.16;5111792;28;20031;-40
2024/01/25 09:52:35;;;;;;;4.15;1.30;;;;;;;14.09;73.74;101810.91;5111569;28;20055;-38
2024/01/25 09:55:01;;;;;;;4.60;1.90;;;;;;;14.90;68.88;101809.50;5111641;28;20031;-41
2024/01/25 09:57:28;;;;;;;5.15;1.63;;;;;;;13.55;76.23;101823.47;5111689;28;20042;-39
2024/01/25 09:59:57;;;;;;;5.88;2.03;;;;;;;13.65;76.75;101830.56;5111345;28;20540;-43
2024/01/25 10:02:22;;;;;;;5.03;1.77;;;;;;;13.39;76.45;101828.31;5111769;28;20174;-37
2024/01/25 10:04:50;;;;;;;4.82;1.48;;;;;;;13.20;81.97;101826.91;5111676;28;20044;-37
2024/01/25 10:07:15;;;;;;;4.35;1.95;;;;;;;12.50;82.94;101822.38;5111815;28;20045;-38
2024/01/25 10:09:42;;;;;;;7.22;2.05;;;;;;;12.57;83.62;101810.84;5115403;28;20031;-37
2024/01/25 10:12:07;;;;;;;4.00;1.47;;;;;;;11.80;88.98;101824.50;5115561;28;20044;-38
2024/01/25 10:14:32;;;;;;;6.38;1.98;;;;;;;12.98;81.75;101811.19;5114461;28;20472;-41
2024/01/25 10:16:58;;;;;;;6.10;2.03;;;;;;;11.82;88.38;101825.59;5115226;28;20039;-38
2024/01/25 10:19:24;;;;;;;4.05;2.55;;;;;;;12.01;87.05;101820.75;5115004;28;20551;-39
2024/01/25 10:21:50;;;;;;;2.53;1.42;;;;;;;11.82;87.79;101816.44;5114961;28;20445;-38
2024/01/25 10:24:15;;;;;;;6.05;1.70;;;;;;;11.53;91.69;101819.75;5115009;28;20024;-38
2024/01/25 10:26:42;;;;;;;4.80;1.77;;;;;;;11.51;92.52;101822.22;5114970;27;20406;-46
2024/01/25 10:29:08;;;;;;;6.73;2.00;;;;;;;12.84;79.99;101823.13;5113172;28;20039;-34
2024/01/25 10:31:39;;;;;;;3.17;1.60;;;;;;;13.55;75.26;101817.88;5114475;28;20114;-34
2024/01/25 10:34:05;;;;;;;5.65;1.75;;;;;;;13.67;75.92;101823.19;5115354;28;20023;-35
2024/01/25 10:36:31;;;;;;;5.10;1.83;;;;;;;14.26;71.53;101807.56;5115104;28;20032;-35
2024/01/25 10:38:57;;;;;;;4.85;2.00;;;;;;;13.51;74.58;101813.25;5114317;27;20066;-34
2024/01/25 10:41:25;;;;;;;3.17;1.67;;;;;;;13.66;70.60;101804.06;5115372;28;20032;-33
2024/01/25 10:43:50;;;;;;;;;;;;;;;14.23;68.54;101809.31;5115126;28;20028;-33
2024/01/25 10:46:16;;;;;;;5.72;2.38;;;;;;;14.49;68.20;101808.66;5115039;28;20294;-33
2024/01/25 10:48:42;;;;;;;4.43;1.83;;;;;;;14.41;66.77;101814.69;5113416;28;20093;-33
2024/01/25 10:51:09;;;;;;;6.40;1.88;;;;;;;14.12;72.00;101815.50;5114998;28;20616;-35
2024/01/25 10:53:36;;;;;;;7.15;2.15;;;;;;;13.99;70.48;101817.84;5114821;28;20044;-35
2024/01/25 10:56:02;;;;;;;5.22;1.70;;;;;;;14.89;67.05;101803.09;5114919;28;20585;-34
2024/01/25 10:58:33;;;;;;;8.18;2.33;;;;;;;13.67;71.07;101795.16;5114599;28;20047;-33
2024/01/25 11:00:59;;;;;;;4.13;1.90;;;;;;;13.45;74.12;101794.75;5114694;28;20027;-33
2024/01/25 11:03:28;;;;;;;3.63;1.85;;;;;;;13.23;74.40;101786.72;5114743;28;20101;-33
2024/01/25 11:05:55;;;;;;;4.85;1.80;;;;;;;13.88;71.88;101782.00;5114567;28;20101;-33
2024/01/25 11:08:20;;;;;;;5.80;1.77;;;;;;;14.15;71.83;101792.09;5114945;28;20115;-35
2024/01/25 11:10:52;;;;;;;4.50;1.73;;;;;;;14.55;67.18;101782.22;5115206;28;20046;-35
2024/01/25 11:13:25;;;;;;;5.13;1.70;;;;;;;13.27;72.02;101782.47;5122931;28;20044;-33
2024/01/25 11:15:51;;;;;;;6.80;1.90;;;;;;;12.73;76.99;101790.03;5116060;28;20047;-34
2024/01/25 11:18:16;;;;;;;6.47;1.80;;;;;;;12.75;77.52;101787.56;5114112;28;20039;-35
2024/01/25 11:20:42;;;;;;;7.50;2.65;;;;;;;13.47;74.09;101790.22;5114021;28;20495;-34
2024/01/25 11:23:09;;;;;;;5.40;1.92;;;;;;;13.89;73.93;101783.53;5113985;28;20035;-33
2024/01/25 11:25:36;;;;;;;6.45;1.80;;;;;;;13.79;70.31;101765.28;5114334;28;20043;-34
2024/01/25 11:28:03;;;;;;;5.15;1.58;;;;;;;15.03;65.24;101758.56;5114093;28;20039;-33
2024/01/25 11:30:30;;;;;;;2.88;1.33;;;;;;;15.24;63.81;101762.84;5113856;28;20032;-33
2024/01/25 11:32:56;;;;;;;5.57;1.73;;;;;;;16.32;60.04;101761.69;5113628;28;20035;-33
2024/01/25 11:35:22;;;;;;;5.90;2.08;;;;;;;16.47;60.99;101760.22;5112329;28;20096;-33
2024/01/25 11:37:48;;;;;;;5.72;1.60;;;;;;;15.42;62.04;101766.59;5113073;28;20055;-34
2024/01/25 11:40:15;;;;;;;5.63;1.63;;;;;;;15.49;60.60;101763.34;5111275;28;20475;-34
2024/01/25 11:42:47;;;;;;;3.97;1.60;;;;;;;15.74;61.60;101756.94;5113386;28;20069;-34
2024/01/25 11:45:13;;;;;;;6.10;2.03;;;;;;;14.49;66.20;101752.50;5112683;28;20179;-36
2024/01/25 11:47:39;;;;;;;3.55;1.73;;;;;;;14.60;65.65;101756.25;5111997;28;20498;-34
2024/01/25 11:50:06;;;;;;;5.55;1.40;;;;;;;14.95;66.00;101749.00;5095080;28;20027;-34
2024/01/25 11:52:33;;;;;;;;;;;;;;;13.67;69.55;101746.72;5113787;28;20034;-33
2024/01/25 11:55:03;;;;;;;4.45;2.00;;;;;;;13.96;70.91;101740.28;5113296;28;19912;-34
2024/01/25 11:57:31;;;;;;;6.03;1.80;;;;;;;13.77;70.60;101736.94;5110928;28;20096;-35
2024/01/25 11:59:58;;;;;;;6.28;1.80;;;;;;;13.37;71.45;101729.91;5094024;28;20020;-34
2024/01/25 12:02:24;;;;;;;5.40;1.88;;;;;;;13.18;75.82;101728.53;5112944;28;20063;-33
2024/01/25 12:04:50;;;;;;;7.95;5.25;;;;;;;13.02;76.25;101722.13;5111603;28;20547;-34
2024/01/25 12:07:15;;;;;;;12.85;7.28;;;;;;;13.48;74.92;101712.50;5112747;28;20027;-34
2024/01/25 12:09:41;;;;;;;4.88;1.75;;;;;;;14.30;67.74;101718.31;5112998;28;20487;-34
2024/01/25 12:12:07;;;;;;;5.78;2.50;;;;;;;13.88;66.53;101708.28;5112676;28;20053;-34
2024/01/25 12:14:32;;;;;;;8.18;3.40;;;;;;;14.18;66.16;101706.16;5112903;28;20091;-34
2024/01/25 12:16:57;;;;;;;5.88;3.50;;;;;;;13.91;65.57;101698.91;5112495;28;20506;-34
2024/01/25 12:19:23;;;;;;;5.10;1.98;;;;;;;13.40;69.46;101697.34;5112693;28;20042;-34
2024/01/25 12:21:48;;;;;;;6.65;1.88;;;;;;;14.17;66.12;101688.56;5112599;28;20576;-34
2024/01/25 12:24:14;;;;;;;6.50;2.00;;;;;;;12.99;72.40;101686.66;5112945;28;20023;-34
2024/01/25 12:26:41;;;;;;;7.82;1.77;;;;;;;13.50;67.97;101677.13;5111112;28;20138;-33
2024/01/25 12:29:08;;;;;;;6.65;2.20;;;;;;;13.51;69.24;101684.28;5109383;28;20092;-37
2024/01/25 12:31:33;;;;;;;4.13;1.55;;;;;;;13.89;64.46;101664.94;5110530;28;20057;-33
2024/01/25 12:34:00;;;;;;;7.90;2.03;;;;;;;13.55;64.69;101672.88;5112815;28;20106;-36
2024/01/25 12:36:25;;;;;;;4.32;1.58;;;;;;;14.02;60.77;101664.63;5112729;28;20525;-38
2024/01/25 12:38:51;;;;;;;5.07;1.98;;;;;;;13.82;61.83;101666.13;5112129;28;20047;-33
2024/01/25 12:41:17;;;;;;;5.15;1.73;;;;;;;13.93;60.73;101668.31;5112490;28;20044;-37
2024/01/25 12:43:43;;;;;;;4.55;1.42;;;;;;;14.36;62.45;101672.22;5112673;28;20043;-38
2024/01/25 12:46:08;;;;;;;6.40;1.70;;;;;;;14.21;63.31;101665.88;5112415;28;20114;-35
2024/01/25 12:48:33;;;;;;;6.25;1.50;;;;;;;14.14;65.40;101666.31;5112205;28;20074;-34
2024/01/25 12:50:59;;;;;;;6.45;2.08;;;;;;;13.73;64.03;101663.44;5110865;28;20160;-33
2024/01/25 12:53:25;;;;;;;5.60;1.75;;;;;;;13.39;66.32;101671.34;5112208;28;20035;-33
2024/01/25 12:55:50;;;;;;;5.65;1.88;;;;;;;13.28;68.09;101659.94;5111824;28;20034;-34
2024/01/25 12:58:16;;;;;;;4.57;1.40;;;;;;;12.97;67.99;101652.00;5111582;28;20030;-34
2024/01/25 13:00:43;;;;;;;3.72;1.52;;;;;;;12.70;71.21;101653.03;5110776;28;20051;-33
2024/01/25 13:03:08;;;;;;;6.93;1.98;;;;;;;13.07;67.21;101653.47;5111782;28;20043;-38
2024/01/25 13:05:34;;;;;;;4.88;1.80;;;;;;;13.17;68.69;101656.94;5111850;28;20024;-33
2024/01/25 13:08:02;;;;;;;3.42;1.50;;;;;;;12.94;67.94;101658.59;5111469;28;20031;-33
2024/01/25 13:10:28;;;;;;;3.83;1.30;;;;;;;13.03;66.86;101648.06;5111618;28;20097;-33
2024/01/25 13:12:53;;;;;;;3.47;1.67;;;;;;;12.68;69.80;101641.53;5111568;28;20043;-36
2024/01/25 13:15:20;;;;;;;7.45;1.67;;;;;;;13.05;69.47;101639.94;5111661;28;20031;-32
2024/01/25 13:17:45;;;;;;;4.78;1.77;;;;;;;12.99;69.98;101639.06;5111404;28;20445;-33
2024/01/25 13:20:11;;;;;;;6.72;2.90;;;;;;;12.93;68.85;101631.81;5111116;28;20033;-33
2024/01/25 13:22:36;;;;;;;6.20;2.05;;;;;;;13.07;67.92;101625.44;5111637;28;20032;-34
2024/01/25 13:25:02;;;;;;;6.47;1.80;;;;;;;13.07;68.20;101627.50;5111577;28;20030;-33
2024/01/25 13:27:29;;;;;;;3.67;1.40;;;;;;;12.73;71.91;101627.66;5111811;28;20495;-33
2024/01/25 13:29:55;;;;;;;3.17;1.60;;;;;;;12.79;73.75;101619.34;5111711;28;20560;-32
2024/01/25 13:32:22;;;;;;;5.05;1.48;;;;;;;13.00;74.00;101623.81;5111934;28;20031;-39
2024/01/25 13:34:47;;;;;;;2.87;1.23;;;;;;;12.84;75.29;101624.28;5111968;28;20039;-35
2024/01/25 13:37:13;;;;;;;4.13;1.20;;;;;;;12.62;75.75;101624.66;5111708;28;20296;-36
2024/01/25 13:39:38;;;;;;;4.45;1.73;;;;;;;12.28;77.25;101621.19;5111734;28;20043;-35
2024/01/25 13:42:04;;;;;;;3.33;1.02;;;;;;;12.57;77.05;101619.72;5111445;28;20419;-33
2024/01/25 13:44:29;;;;;;;5.78;1.50;;;;;;;12.26;80.98;101614.53;5114729;28;20036;-33
2024/01/25 13:46:55;;;;;;;5.15;1.52;;;;;;;12.26;80.49;101617.31;5115198;28;20092;-32
2024/01/25 13:49:21;;;;;;;3.60;1.42;;;;;;;11.96;83.26;101617.22;5115686;28;20042;-35
2024/01/25 13:51:47;;;;;;;6.13;1.55;;;;;;;11.97;84.98;101618.78;5115735;28;20043;-38
2024/01/25 13:54:12;;;;;;;5.75;1.17;;;;;;;11.92;85.22;101622.25;5115594;28;20057;-32
2024/01/25 13:56:39;;;;;;;4.55;1.25;;;;;;;11.76;84.77;101617.03;5114417;28;20032;-32
2024/01/25 13:59:05;;;;;;;6.67;1.37;;;;;;;11.81;85.40;101624.75;5115429;28;20036;-32
2024/01/25 14:01:31;;;;;;;3.72;1.50;;;;;;;11.64;87.17;101616.75;5115680;28;20552;-32
2024/01/25 14:03:56;;;;;;;4.13;1.55;;;;;;;11.94;85.37;101616.94;5115508;28;20066;-33
2024/01/25 14:06:21;;;;;;;4.40;1.95;;;;;;;11.69;86.33;101614.59;5115618;28;20038;-34
2024/01/25 14:08:47;;;;;;;7.25;2.17;;;;;;;11.77;86.52;101610.19;5115371;28;20080;-35
2024/01/25 14:11:12;;;;;;;4.80;1.48;;;;;;;11.58;86.31;101613.06;5113956;28;20475;-33
2024/01/25 14:13:37;;;;;;;5.03;1.55;;;;;;;11.61;87.35;101605.75;5115360;28;20047;-34
2024/01/25 14:16:03;;;;;;;3.10;1.58;;;;;;;11.42;90.30;101611.44;5113824;28;20040;-32
2024/01/25 14:18:32;;;;;;;5.53;1.48;;;;;;;11.68;88.31;101613.78;5115079;28;20067;-32
2024/01/25 14:20:57;;;;;;;3.50;1.23;;;;;;;11.46;91.33;101599.31;5114900;28;20054;-33
2024/01/25 14:23:22;;;;;;;5.78;1.63;;;;;;;11.50;92.85;101606.28;5115270;28;20118;-35
2024/01/25 14:25:48;;;;;;;5.55;1.20;;;;;;;11.35;93.35;101606.19;5114908;28;20040;-37
2024/01/25 14:28:13;;;;;;;2.67;1.10;;;;;;;11.14;95.29;101607.22;5115054;27;20118;-34
2024/01/25 14:30:39;;;;;;;5.07;1.77;;;;;;;11.37;94.33;101605.72;5115116;28;20038;-33
2024/01/25 14:33:04;;;;;;;4.20;1.30;;;;;;;11.44;93.70;101602.59;5109582;28;20521;-33
2024/01/25 14:35:30;;;;;;;1.98;1.00;;;;;;;11.38;94.11;101601.69;5100032;28;20455;-33
2024/01/25 14:37:56;;;;;;;3.10;1.10;;;;;;;11.64;92.48;101597.19;5093335;28;20084;-38
2024/01/25 14:40:22;;;;;;;5.35;1.70;;;;;;;11.43;94.82;101610.19;5093331;28;20040;-33
2024/01/25 14:42:48;;;;;;;6.07;1.60;;;;;;;11.25;95.29;101603.91;5094203;28;20047;-33
2024/01/25 14:45:13;;;;;;;5.85;1.40;;;;;;;11.17;94.61;101598.66;5094167;28;20040;-33
2024/01/25 14:47:39;;;;;;;4.53;1.30;;;;;;;11.40;93.09;101599.97;5093421;28;20039;-33
2024/01/25 14:50:05;;;;;;;3.35;1.20;;;;;;;11.20;95.31;101602.50;5103287;28;20130;-35
2024/01/25 14:52:33;;;;;;;2.83;1.45;;;;;;;11.15;95.29;101603.16;5112148;28;20043;-36
2024/01/25 14:55:00;;;;;;;8.55;1.88;;;;;;;11.19;95.09;101596.16;5110183;28;20028;-34
2024/01/25 14:57:25;;;;;;;3.13;1.50;;;;;;;11.05;97.43;101596.84;5112484;28;20035;-33
2024/01/25 14:59:51;;;;;;;2.85;1.20;;;;;;;11.10;97.04;101604.56;5112910;28;20038;-34
2024/01/25 15:02:16;;;;;;;3.95;1.05;;;;;;;10.84;100.00;101600.63;5112762;28;20038;-37
2024/01/25 15:04:42;;;;;;;3.30;1.60;;;;;;;10.63;100.00;101597.56;5113205;28;20050;-34
2024/01/25 15:07:08;;;;;;;3.35;1.20;;;;;;;10.53;100.00;101603.59;5112049;27;20055;-33
2024/01/25 15:09:33;;;;;;;4.03;1.40;;;;;;;10.46;100.00;101599.09;5112687;28;20066;-35
2024/01/25 15:11:59;;;;;;;2.65;1.35;;;;;;;10.19;100.00;101595.06;5094704;28;20456;-35
2024/01/25 15:14:24;;;;;;;6.10;1.65;;;;;;;10.34;100.00;101591.69;5112897;27;20047;-34
2024/01/25 15:16:50;;;;;;;5.10;1.30;;;;;;;10.30;100.00;101593.84;5112042;28;20124;-41
2024/01/25 15:19:15;;;;;;;2.35;1.17;;;;;;;10.24;100.00;101597.25;5112383;28;20103;-39
2024/01/25 15:21:40;;;;;;;3.95;1.25;;;;;;;10.19;100.00;101597.84;5112550;27;20479;-41
2024/01/25 15:24:06;;;;;;;3.03;1.20;;;;;;;10.00;100.00;101605.41;5110938;28;20027;-40
2024/01/25 15:26:31;;;;;;;4.28;1.38;;;;;;;10.04;100.00;101608.81;5092396;28;20075;-41
2024/01/25 15:28:57;;;;;;;1.75;0.95;;;;;;;9.85;100.00;101604.44;5093025;28;20036;-38
2024/01/25 15:31:22;;;;;;;3.78;1.08;;;;;;;9.76;100.00;101607.25;5093471;28;20032;-41
2024/01/25 15:33:48;;;;;;;3.38;1.40;;;;;;;9.94;100.00;101606.50;5093389;28;20563;-39
2024/01/25 15:36:13;;;;;;;4.13;1.20;;;;;;;9.71;100.00;101605.06;5093202;28;20411;-37
2024/01/25 15:38:40;;;;;;;5.35;1.38;;;;;;;9.94;100.00;101600.91;5092751;28;20120;-37
2024/01/25 15:41:05;;;;;;;3.95;1.58;;;;;;;9.87;100.00;101596.41;5093136;28;20468;-41
2024/01/25 15:43:31;;;;;;;3.33;1.45;;;;;;;9.96;100.00;101587.31;5093445;28;20088;-40
2024/01/25 15:45:56;;;;;;;3.35;1.27;;;;;;;10.15;100.00;101579.72;5092939;28;20032;-40
2024/01/25 15:48:21;;;;;;;3.35;1.33;;;;;;;9.90;100.00;101578.00;5092953;28;20032;-40
2024/01/25 15:50:47;;;;;;;4.65;1.55;;;;;;;9.83;100.00;101578.31;5093151;28;20127;-40
2024/01/25 15:53:15;;;;;;;2.97;1.55;;;;;;;9.98;100.00;101566.09;5093198;28;20085;-40
2024/01/25 15:55:40;;;;;;;2.95;1.88;;;;;;;9.74;100.00;101565.13;5093387;28;20043;-40
2024/01/25 15:58:05;;;;;;;3.50;1.25;;;;;;;9.70;100.00;101575.66;5092493;28;20403;-40
2024/01/25 16:00:31;;;;;;;3.65;1.45;;;;;;;9.72;100.00;101567.59;5092720;28;20403;-40
2024/01/25 16:02:56;;;;;;;3.30;1.52;;;;;;;9.63;100.00;101576.72;5092773;28;20122;-39
2024/01/25 16:05:21;;;;;;;4.40;1.30;;;;;;;9.63;100.00;101575.91;5091228;28;20040;-44
2024/01/25 16:07:48;;;;;;;3.17;1.63;;;;;;;9.68;100.00;101576.09;5091549;28;20027;-42
2024/01/25 16:10:15;;;;;;;3.40;1.40;;;;;;;9.63;100.00;101575.91;5092022;28;20032;-42
2024/01/25 16:12:40;;;;;;;3.60;1.65;;;;;;;9.58;100.00;101566.16;5101054;28;20116;-42
2024/01/25 16:15:06;;;;;;;2.83;1.30;;;;;;;9.53;100.00;101561.19;5092531;28;20123;-40
2024/01/25 16:17:32;;;;;;;4.28;1.35;;;;;;;9.54;100.00;101568.34;5091835;28;20384;-39
2024/01/25 16:19:57;;;;;;;4.78;1.13;;;;;;;9.61;100.00;101570.81;5092452;28;20040;-40
2024/01/25 16:22:23;;;;;;;2.13;1.10;;;;;;;9.61;100.00;101562.47;5096827;28;20092;-40
2024/01/25 16:24:48;;;;;;;2.38;1.10;;;;;;;9.45;100.00;101566.28;5096733;28;20048;-42
2024/01/25 16:27:14;;;;;;;3.28;1.20;;;;;;;9.64;100.00;101571.91;5091615;28;20043;-41
2024/01/25 16:29:39;;;;;;;4.35;1.38;;;;;;;9.65;100.00;101574.22;5092471;28;20036;-42
2024/01/25 16:32:05;;;;;;;4.57;1.73;;;;;;;9.57;100.00;101573.00;5092197;28;20094;-43
2024/01/25 16:34:30;;;;;;;2.38;1.33;;;;;;;9.62;100.00;101575.16;5092523;28;20040;-42
2024/01/25 16:36:55;;;;;;;2.85;1.27;;;;;;;9.79;100.00;101568.09;5091497;28;20044;-40
2024/01/25 16:39:21;;;;;;;4.22;1.45;;;;;;;9.66;100.00;101569.44;5092120;28;20039;-43